Terminal Aerodrome Forecast
Issued by NWS

Home | Current Version | Previous Version | Text Only | Print | Product List | Glossary On
Versions: 1 2 3 4 5 6 7 8 9 10 11 12 13 14 15 16 17 18 19 20 21 22 23 24 25 26 27 28 29 30 31 32 33 34
000
FTUS43 KEAX 211900 AAA
TAFIXD
TAF AMD
KIXD 211900Z 2119/2218 19018G27KT P6SM VCTS OVC018CB
      TEMPO 2119/2121 5SM -TSRA BR
     FM212300 18014KT P6SM VCTS BKN035CB
     FM220800 18012KT 4SM -TSRA BR OVC025CB
      TEMPO 2209/2213 1SM +TSRA BR OVC015CB
     FM221300 19012KT 4SM -TSRA BR OVC008CB=

USA.gov is the U.S. government's official web portal to all federal, state and local government web resources and services.